Flight Track Log - Related Links

Times and Time Zones

All times are in EDT time to prevent confusion due to time zone crossing. See the N1129K flight status page for this flight to view local times or setup timezone preferences in your user account.

Time Position Orientation Groundspeed Altitude Reporting Facility
EDT Latitude Longitude Course Direction KTS MPH feet Rate Location/Type
Thu 12:34:15 PM 34.0554 -117.7891 173° South  Level FlightAware Approximate
Thu 12:35:22 PM 34.0167 -117.7833 180° South 97 112 3,000  Level Southern California TRACON
Thu 12:36:22 PM 34.0000 -117.7833 180° South 99 114 3,000 250 Level Southern California TRACON
Thu 12:37:22 PM 33.9667 -117.7833 180° South 91 105 3,500 500 Climbing Southern California TRACON
Thu 12:38:22 PM 33.9500 -117.7833 203° Southwest 100 115 4,000 250 Climbing Southern California TRACON
Thu 12:39:22 PM 33.9167 -117.8000 220° Southwest 106 122 4,000  Level Southern California TRACON
Thu 12:40:22 PM 33.9000 -117.8167 239° Southwest 106 122 4,000  Level Southern California TRACON
Thu 12:41:22 PM 33.8833 -117.8500 239° Southwest 104 120 4,000  Level Southern California TRACON
Thu 12:42:17 PM 33.8667 -117.8833 220° Southwest 107 123 4,000  Level Southern California TRACON
Thu 12:43:17 PM 33.8500 -117.9000 203° Southwest 109 125 4,000  Level Southern California TRACON
Thu 12:44:11 PM 33.8167 -117.9167 157° South 109 125 4,000  Level Southern California TRACON
Thu 12:45:17 PM 33.7833 -117.9000 40° Northeast 109 125 4,000  Level Southern California TRACON
Thu 12:46:17 PM 33.8000 -117.8833 40° Northeast 107 123 4,000  Level Southern California TRACON
Thu 12:47:17 PM 33.8167 -117.8667 40° Northeast 104 120 4,000  Level Southern California TRACON
Thu 12:48:17 PM 33.8500 -117.8333 40° Northeast 107 123 4,000  Level Southern California TRACON
Thu 12:49:12 PM 33.8667 -117.8167 40° Northeast 107 123 4,000 -50 Level Southern California TRACON
Thu 12:50:18 PM 33.8833 -117.8000 157° South 119 137 3,900 -450 Descending Southern California TRACON
Thu 12:51:12 PM 33.8500 -117.7833 180° South 112 129 3,100 -737 Descending Southern California TRACON
Thu 12:52:12 PM 33.8167 -117.7833 180° South 108 124 2,500 -421 Descending Southern California TRACON
Thu 12:53:06 PM 33.8000 -117.7833 220° Southwest 106 122 2,300 -200 Descending Southern California TRACON
Thu 12:54:12 PM 33.7667 -117.8167 180° South 112 129 2,100 -347 Descending Southern California TRACON
Thu 12:55:07 PM 33.7500 -117.8167 220° Southwest 112 129 1,600 -574 Descending Southern California TRACON
Thu 12:56:07 PM 33.7167 -117.8500 180° South 116 133 1,000 -600 Descending Southern California TRACON
Thu 12:57:07 PM 33.7000 -117.8500 180° South 103 119 400 -600 Descending Southern California TRACON

Login

Don't have an account? Register now (free) for customized features, flight alerts, and more!